createdAt,value
2023-01-20T00:02:03.543Z,21.11
2023-01-20T00:04:36.737Z,21.11
2023-01-20T00:07:08.581Z,21.07
2023-01-20T00:09:36.730Z,21.07
2023-01-20T00:12:12.554Z,21.04
2023-01-20T00:14:40.791Z,20.98
2023-01-20T00:17:14.480Z,20.96
2023-01-20T00:19:44.092Z,20.93
2023-01-20T00:22:12.270Z,20.94
2023-01-20T00:24:43.150Z,20.90
2023-01-20T00:27:21.261Z,20.90
2023-01-20T00:29:49.511Z,20.87
2023-01-20T00:32:22.487Z,20.85
2023-01-20T00:34:58.564Z,20.82
2023-01-20T00:37:36.766Z,20.86
2023-01-20T00:40:10.054Z,20.87
2023-01-20T00:42:41.226Z,20.87
2023-01-20T00:45:15.176Z,20.88
2023-01-20T00:47:44.024Z,20.87
2023-01-20T00:50:12.220Z,20.85
2023-01-20T00:52:43.866Z,20.84
2023-01-20T00:55:15.056Z,20.85
2023-01-20T00:57:53.830Z,20.85
2023-01-20T01:00:23.926Z,20.84
2023-01-20T01:02:54.983Z,20.81
2023-01-20T01:05:23.467Z,20.76
2023-01-20T01:07:56.447Z,20.76
2023-01-20T01:10:27.909Z,20.73
2023-01-20T01:13:01.427Z,20.73
2023-01-20T01:15:32.405Z,20.72
2023-01-20T01:18:09.736Z,20.71
2023-01-20T01:20:40.368Z,20.71
2023-01-20T01:23:08.641Z,20.68
2023-01-20T01:25:41.749Z,20.68
2023-01-20T01:28:22.004Z,20.68
2023-01-20T01:33:45.785Z,20.64
2023-01-20T01:36:16.731Z,20.63
2023-01-20T01:38:57.697Z,20.61
2023-01-20T01:41:27.837Z,20.60
2023-01-20T01:44:01.754Z,20.58
2023-01-20T01:46:37.330Z,20.60
2023-01-20T01:49:13.151Z,20.58
2023-01-20T01:51:52.883Z,20.57
2023-01-20T01:54:28.441Z,20.57
2023-01-20T01:56:59.957Z,20.59
2023-01-20T01:59:33.499Z,20.57
2023-01-20T02:02:09.384Z,20.54
2023-01-20T02:04:44.480Z,20.50
2023-01-20T02:07:16.047Z,20.56
2023-01-20T02:09:49.545Z,20.56
2023-01-20T02:12:31.027Z,20.56
2023-01-20T02:15:01.777Z,20.57
2023-01-20T02:17:30.137Z,20.58
2023-01-20T02:20:00.064Z,20.57
2023-01-20T02:22:34.695Z,20.58
2023-01-20T02:25:11.166Z,20.57
2023-01-20T02:27:43.834Z,20.57
2023-01-20T02:30:14.373Z,20.57
2023-01-20T02:32:45.719Z,20.58
2023-01-20T02:35:22.418Z,20.56
2023-01-20T02:37:54.137Z,20.56
2023-01-20T02:40:32.453Z,20.56
2023-01-20T02:43:01.655Z,20.53
2023-01-20T02:45:36.734Z,20.54
2023-01-20T02:48:04.890Z,20.53
2023-01-20T02:50:33.488Z,20.52
2023-01-20T02:53:05.751Z,20.51
2023-01-20T02:55:39.758Z,20.50
2023-01-20T02:58:15.925Z,20.49
2023-01-20T03:00:44.684Z,20.46
2023-01-20T03:03:16.057Z,20.47
2023-01-20T03:05:44.439Z,20.45
2023-01-20T03:08:18.327Z,20.44
2023-01-20T03:10:49.495Z,20.44
2023-01-20T03:13:17.330Z,20.44
2023-01-20T03:15:45.155Z,20.43
2023-01-20T03:18:13.036Z,20.44
2023-01-20T03:20:40.815Z,20.42
2023-01-20T03:23:08.621Z,20.41
2023-01-20T03:25:36.403Z,20.41
2023-01-20T03:28:04.238Z,20.36
2023-01-20T03:30:32.146Z,20.32
2023-01-20T03:33:00.012Z,20.32
2023-01-20T03:35:27.784Z,20.30
2023-01-20T03:37:55.574Z,20.27
2023-01-20T03:40:23.413Z,20.26
2023-01-20T03:42:52.718Z,20.24
2023-01-20T03:45:20.544Z,20.24
2023-01-20T03:47:48.359Z,20.23
2023-01-20T03:50:16.154Z,20.24
2023-01-20T03:52:47.756Z,20.24
2023-01-20T03:55:16.846Z,20.23
2023-01-20T03:57:44.856Z,20.21
2023-01-20T04:00:12.612Z,20.22
2023-01-20T04:02:40.428Z,20.21
2023-01-20T04:05:08.394Z,20.22
2023-01-20T04:07:36.215Z,20.20
2023-01-20T04:10:03.982Z,20.18
2023-01-20T04:12:31.730Z,20.18
2023-01-20T04:14:59.526Z,20.17
2023-01-20T04:17:27.370Z,20.17
2023-01-20T04:19:55.219Z,20.16
2023-01-20T04:22:22.954Z,20.16
2023-01-20T04:24:50.723Z,20.18
2023-01-20T04:27:18.518Z,20.18
2023-01-20T04:29:46.321Z,20.18
2023-01-20T04:32:14.099Z,20.20
2023-01-20T04:34:41.923Z,20.17
2023-01-20T04:37:09.748Z,20.18
2023-01-20T04:39:37.567Z,20.18
2023-01-20T04:42:05.408Z,20.19
2023-01-20T04:44:33.274Z,20.19
2023-01-20T04:47:01.149Z,20.17
2023-01-20T04:49:28.907Z,20.16
2023-01-20T04:51:56.708Z,20.15
2023-01-20T04:54:24.536Z,20.15
2023-01-20T04:56:52.369Z,20.13
2023-01-20T04:59:20.400Z,20.11
2023-01-20T05:01:48.373Z,20.13
2023-01-20T05:04:16.259Z,20.11
2023-01-20T05:06:45.169Z,20.11
2023-01-20T05:09:12.967Z,20.11
2023-01-20T05:11:40.825Z,20.09
2023-01-20T05:14:08.591Z,20.08
2023-01-20T05:16:36.431Z,20.06
2023-01-20T05:19:04.221Z,20.09
2023-01-20T05:21:32.028Z,20.07
2023-01-20T05:23:59.819Z,20.07
2023-01-20T05:26:27.622Z,20.03
2023-01-20T05:28:55.391Z,20.02
2023-01-20T05:31:23.227Z,20.00
2023-01-20T05:33:51.064Z,19.99
2023-01-20T05:36:18.852Z,19.96
2023-01-20T05:38:46.657Z,19.97
2023-01-20T05:41:14.491Z,19.96
2023-01-20T05:43:42.280Z,19.94
2023-01-20T05:46:10.197Z,19.95
2023-01-20T05:48:38.037Z,19.93
2023-01-20T05:51:05.863Z,19.92
2023-01-20T05:53:33.668Z,19.93
2023-01-20T05:56:02.014Z,19.94
2023-01-20T05:58:29.834Z,19.93
2023-01-20T06:00:57.670Z,19.94
2023-01-20T06:03:25.453Z,19.94
2023-01-20T06:05:53.297Z,19.95
2023-01-20T06:08:21.173Z,19.95
2023-01-20T06:10:50.576Z,19.95
2023-01-20T06:13:18.436Z,19.94
2023-01-20T06:15:46.248Z,19.95
2023-01-20T06:18:14.131Z,19.96
2023-01-20T06:20:41.975Z,19.96
2023-01-20T06:23:09.738Z,19.95
2023-01-20T06:25:37.492Z,19.95
2023-01-20T06:28:05.291Z,19.93
2023-01-20T06:30:33.062Z,19.92
2023-01-20T06:33:00.856Z,19.93
2023-01-20T06:35:28.631Z,19.91
2023-01-20T06:37:56.427Z,19.92
2023-01-20T06:40:24.185Z,19.92
2023-01-20T06:42:51.996Z,19.91
2023-01-20T06:45:19.758Z,19.88
2023-01-20T06:47:47.488Z,19.87
2023-01-20T06:50:15.273Z,19.85
2023-01-20T06:52:43.037Z,19.85
2023-01-20T06:55:10.791Z,19.85
2023-01-20T06:57:38.521Z,19.86
2023-01-20T07:00:06.279Z,19.86
2023-01-20T07:02:34.100Z,19.85
2023-01-20T07:05:02.592Z,19.85
2023-01-20T07:07:30.370Z,19.83
2023-01-20T07:09:58.821Z,19.82
2023-01-20T07:12:26.589Z,19.82
2023-01-20T07:14:54.376Z,19.82
2023-01-20T07:17:22.152Z,19.81
2023-01-20T07:19:49.976Z,19.81
2023-01-20T07:22:17.710Z,19.82
2023-01-20T07:24:45.509Z,19.80
2023-01-20T07:27:15.085Z,19.79
2023-01-20T07:29:43.059Z,19.79
2023-01-20T07:32:10.874Z,19.79
2023-01-20T07:34:38.639Z,19.78
2023-01-20T07:37:06.379Z,19.79
2023-01-20T07:39:36.285Z,19.78
2023-01-20T07:42:04.112Z,19.80
2023-01-20T07:44:32.151Z,19.84
2023-01-20T07:46:59.938Z,19.83
2023-01-20T07:49:27.772Z,19.87
2023-01-20T07:51:55.611Z,19.89
2023-01-20T07:54:23.413Z,19.92
2023-01-20T07:56:51.228Z,19.92
2023-01-20T07:59:19.047Z,19.90
2023-01-20T08:01:46.979Z,19.91
2023-01-20T08:04:14.790Z,19.94
2023-01-20T08:06:42.581Z,19.95
2023-01-20T08:09:12.328Z,19.95
2023-01-20T08:11:40.281Z,19.93
2023-01-20T08:14:08.118Z,19.92
2023-01-20T08:16:36.005Z,19.92
2023-01-20T08:19:03.783Z,19.94
2023-01-20T08:21:31.807Z,19.94
2023-01-20T08:23:59.610Z,19.92
2023-01-20T08:26:28.292Z,19.92
2023-01-20T08:28:56.269Z,19.93
2023-01-20T08:31:24.265Z,19.92
2023-01-20T08:33:52.136Z,19.90
2023-01-20T08:36:19.937Z,19.89
2023-01-20T08:38:47.963Z,19.89
2023-01-20T08:41:15.755Z,19.87
2023-01-20T08:43:43.571Z,19.88
2023-01-20T08:46:11.401Z,19.87
2023-01-20T08:48:39.303Z,19.87
2023-01-20T08:51:07.731Z,19.85
2023-01-20T08:53:35.644Z,19.80
2023-01-20T08:56:03.454Z,19.79
2023-01-20T08:58:31.296Z,19.77
2023-01-20T09:00:59.257Z,19.77
2023-01-20T09:03:27.122Z,19.77
2023-01-20T09:05:54.908Z,19.76
2023-01-20T09:08:26.990Z,19.78
2023-01-20T09:10:57.573Z,19.79
2023-01-20T09:13:25.440Z,19.82
2023-01-20T09:15:53.248Z,19.80
2023-01-20T09:18:21.062Z,19.79
2023-01-20T09:20:48.965Z,19.79
2023-01-20T09:23:16.814Z,19.78
2023-01-20T09:25:44.624Z,19.80
2023-01-20T09:28:14.318Z,19.80
2023-01-20T09:30:44.619Z,19.80
2023-01-20T09:33:12.649Z,19.83
2023-01-20T09:35:40.408Z,19.82
2023-01-20T09:38:25.849Z,19.83
2023-01-20T09:41:10.952Z,19.83
2023-01-20T09:43:56.933Z,19.85
2023-01-20T09:46:24.723Z,20.51
2023-01-20T09:49:09.926Z,21.65
2023-01-20T09:51:55.043Z,22.30
2023-01-20T09:54:22.810Z,22.49
2023-01-20T09:56:51.928Z,22.56
2023-01-20T09:59:19.754Z,22.48
2023-01-20T10:01:47.568Z,22.39
2023-01-20T10:04:15.623Z,22.27
2023-01-20T10:06:43.401Z,22.09
2023-01-20T10:09:11.171Z,21.97
2023-01-20T10:11:39.009Z,21.83
2023-01-20T10:14:06.896Z,21.69
2023-01-20T10:16:34.657Z,21.54
2023-01-20T10:19:02.398Z,21.40
2023-01-20T10:21:30.356Z,21.31
2023-01-20T10:23:58.092Z,21.20
2023-01-20T10:26:25.871Z,21.09
2023-01-20T10:28:53.628Z,21.01
2023-01-20T10:31:21.400Z,20.91
2023-01-20T10:33:49.197Z,20.85
2023-01-20T10:36:16.961Z,20.76
2023-01-20T10:38:44.695Z,20.70
2023-01-20T10:41:14.613Z,20.64
2023-01-20T10:43:43.401Z,20.59
2023-01-20T10:46:12.557Z,20.52
2023-01-20T10:48:40.454Z,20.47
2023-01-20T10:51:13.440Z,20.42
2023-01-20T10:53:41.274Z,20.33
2023-01-20T10:56:09.087Z,20.30
2023-01-20T10:58:36.936Z,20.24
2023-01-20T11:01:04.715Z,20.20
2023-01-20T11:03:32.504Z,20.19
2023-01-20T11:06:00.246Z,20.18
2023-01-20T11:08:28.029Z,20.14
2023-01-20T11:10:55.860Z,20.13
2023-01-20T11:13:23.697Z,20.11
2023-01-20T11:15:52.157Z,20.08
2023-01-20T11:18:19.987Z,20.05
2023-01-20T11:20:47.912Z,20.05
2023-01-20T11:23:15.716Z,20.03
2023-01-20T11:25:43.550Z,20.02
2023-01-20T11:28:11.382Z,20.04
2023-01-20T11:30:39.187Z,20.02
2023-01-20T11:33:07.044Z,19.97
2023-01-20T11:35:34.814Z,19.98
2023-01-20T11:38:02.629Z,20.00
2023-01-20T11:40:30.424Z,19.98
2023-01-20T11:42:58.277Z,19.99
2023-01-20T11:45:26.085Z,19.98
2023-01-20T11:47:53.909Z,19.98
2023-01-20T11:50:21.658Z,19.99
2023-01-20T11:52:49.456Z,19.99
2023-01-20T11:55:17.294Z,20.00
2023-01-20T11:57:45.456Z,19.95
2023-01-20T12:00:14.050Z,19.94
2023-01-20T12:02:42.156Z,19.96
2023-01-20T12:05:09.934Z,19.96
2023-01-20T12:07:37.700Z,19.96
2023-01-20T12:10:08.670Z,19.93
2023-01-20T12:12:36.441Z,19.94
2023-01-20T12:15:04.698Z,19.92
2023-01-20T12:17:32.474Z,19.89
2023-01-20T12:20:00.415Z,19.87
2023-01-20T12:22:28.145Z,19.86
2023-01-20T12:25:11.661Z,19.86
2023-01-20T12:27:39.408Z,19.84
2023-01-20T12:30:07.183Z,19.84
2023-01-20T12:32:34.940Z,19.82
2023-01-20T12:35:02.746Z,19.82
2023-01-20T12:37:30.646Z,19.82
2023-01-20T12:39:58.440Z,19.78
2023-01-20T12:42:26.262Z,19.75
2023-01-20T12:44:54.201Z,19.77
2023-01-20T12:47:22.039Z,19.75
2023-01-20T12:49:49.861Z,19.72
2023-01-20T12:52:17.751Z,19.72
2023-01-20T12:54:48.783Z,19.72
2023-01-20T12:57:16.982Z,19.70
2023-01-20T12:59:44.720Z,19.67
2023-01-20T13:02:12.472Z,19.67
2023-01-20T13:04:40.235Z,19.67
2023-01-20T13:07:08.080Z,19.64
2023-01-20T13:09:35.824Z,19.64
2023-01-20T13:12:03.690Z,19.64
2023-01-20T13:14:31.932Z,19.65
2023-01-20T13:16:59.798Z,19.65
2023-01-20T13:19:27.617Z,19.62
2023-01-20T13:22:07.221Z,19.61
2023-01-20T13:24:35.819Z,19.61
2023-01-20T13:27:03.676Z,19.66
2023-01-20T13:29:31.459Z,19.67
2023-01-20T13:31:59.550Z,19.70
2023-01-20T13:34:27.699Z,19.71
2023-01-20T13:36:55.504Z,19.74
2023-01-20T13:39:25.453Z,19.78
2023-01-20T13:41:53.458Z,19.84
2023-01-20T13:44:21.473Z,19.84
2023-01-20T13:46:49.204Z,19.86
2023-01-20T13:49:16.968Z,19.88
2023-01-20T13:51:45.043Z,19.89
2023-01-20T13:54:12.821Z,19.87
2023-01-20T13:56:40.576Z,19.86
2023-01-20T13:59:08.310Z,19.87
2023-01-20T14:01:39.444Z,19.87
2023-01-20T14:04:07.315Z,19.90
2023-01-20T14:06:37.275Z,19.92
2023-01-20T14:09:07.874Z,19.92
2023-01-20T14:11:37.066Z,19.93
2023-01-20T14:14:05.672Z,19.96
2023-01-20T14:16:33.436Z,19.96
2023-01-20T14:19:01.763Z,19.97
2023-01-20T14:21:29.687Z,19.99
2023-01-20T14:24:00.494Z,19.99
2023-01-20T14:26:28.256Z,19.98
2023-01-20T14:28:56.024Z,19.99
2023-01-20T14:31:23.961Z,20.00
2023-01-20T14:33:51.792Z,20.02
2023-01-20T14:36:19.556Z,20.01
2023-01-20T14:38:56.947Z,20.03
2023-01-20T14:41:25.268Z,20.03
2023-01-20T14:43:53.057Z,20.05
2023-01-20T14:46:20.874Z,20.08
2023-01-20T14:48:48.694Z,20.60
2023-01-20T14:51:16.507Z,21.43
2023-01-20T14:53:44.221Z,22.17
2023-01-20T14:56:12.033Z,22.68
2023-01-20T14:58:39.763Z,22.97
2023-01-20T15:01:07.527Z,23.15
2023-01-20T15:03:35.293Z,23.25
2023-01-20T15:06:03.100Z,23.95
2023-01-20T15:08:30.996Z,28.17
2023-01-20T15:10:58.783Z,33.04
2023-01-20T15:13:26.504Z,36.17
2023-01-20T15:15:54.256Z,37.57
2023-01-20T15:18:22.298Z,38.86
2023-01-20T15:20:50.043Z,40.77
2023-01-20T15:23:17.963Z,42.59
2023-01-20T15:25:45.729Z,44.19
2023-01-20T15:28:13.485Z,45.24
2023-01-20T15:30:41.258Z,45.92
2023-01-20T15:33:08.972Z,46.43
2023-01-20T15:35:36.700Z,46.75
2023-01-20T15:38:04.455Z,46.84
2023-01-20T15:40:32.219Z,46.68
2023-01-20T15:43:00.064Z,46.01
2023-01-20T15:45:27.820Z,44.91
2023-01-20T15:47:56.186Z,43.69
2023-01-20T15:50:24.411Z,42.34
2023-01-20T15:52:52.129Z,41.02
2023-01-20T15:55:19.858Z,39.61
2023-01-20T15:57:47.825Z,38.46
2023-01-20T16:00:15.875Z,37.30
2023-01-20T16:02:43.742Z,36.19
2023-01-20T16:05:15.235Z,35.09
2023-01-20T16:07:44.329Z,34.12
2023-01-20T16:10:12.087Z,33.21
2023-01-20T16:12:39.935Z,32.37
2023-01-20T16:15:07.648Z,31.51
2023-01-20T16:17:35.383Z,30.84
2023-01-20T16:20:03.283Z,30.13
2023-01-20T16:22:31.056Z,29.58
2023-01-20T16:24:58.774Z,29.02
2023-01-20T16:27:26.630Z,28.47
2023-01-20T16:29:55.949Z,27.97
2023-01-20T16:32:24.356Z,27.45
2023-01-20T16:34:52.080Z,27.04
2023-01-20T16:37:19.852Z,26.64
2023-01-20T16:39:47.859Z,26.25
2023-01-20T16:42:15.636Z,25.85
2023-01-20T16:44:43.355Z,25.52
2023-01-20T16:47:11.094Z,25.19
2023-01-20T16:49:39.476Z,25.21
2023-01-20T16:52:07.200Z,25.39
2023-01-20T16:54:35.026Z,25.47
2023-01-20T16:57:02.868Z,25.43
2023-01-20T16:59:30.632Z,25.48
2023-01-20T17:01:58.780Z,25.40
2023-01-20T17:04:26.749Z,25.40
2023-01-20T17:06:54.743Z,25.45
2023-01-20T17:09:22.489Z,25.52
2023-01-20T17:11:50.220Z,25.61
2023-01-20T17:14:18.024Z,25.72
2023-01-20T17:16:45.898Z,25.79
2023-01-20T17:19:16.104Z,25.90
2023-01-20T17:21:45.251Z,26.21
2023-01-20T17:24:13.364Z,29.76
2023-01-20T17:26:41.833Z,34.22
2023-01-20T17:29:09.678Z,36.72
2023-01-20T17:31:37.734Z,37.68
2023-01-20T17:34:05.708Z,38.23
2023-01-20T17:36:34.804Z,39.33
2023-01-20T17:39:02.852Z,40.66
2023-01-20T17:41:30.817Z,41.90
2023-01-20T17:43:58.762Z,42.82
2023-01-20T17:46:27.731Z,43.44
2023-01-20T17:48:55.458Z,43.45
2023-01-20T17:51:23.562Z,42.90
2023-01-20T17:53:51.697Z,41.87
2023-01-20T17:56:24.306Z,40.66
2023-01-20T17:58:52.200Z,39.49
2023-01-20T18:01:20.137Z,38.32
2023-01-20T18:03:47.937Z,37.14
2023-01-20T18:06:15.922Z,36.03
2023-01-20T18:08:43.792Z,35.02
2023-01-20T18:11:11.577Z,34.05
2023-01-20T18:13:39.391Z,33.14
2023-01-20T18:16:07.629Z,32.30
2023-01-20T18:18:35.636Z,31.50
2023-01-20T18:21:03.442Z,30.78
2023-01-20T18:23:31.824Z,30.10
2023-01-20T18:25:59.578Z,29.54
2023-01-20T18:28:27.873Z,28.92
2023-01-20T18:30:55.784Z,28.36
2023-01-20T18:33:23.625Z,27.83
2023-01-20T18:35:51.603Z,27.38
2023-01-20T18:38:19.566Z,26.93
2023-01-20T18:40:47.437Z,26.55
2023-01-20T18:43:15.390Z,26.17
2023-01-20T18:45:43.195Z,25.92
2023-01-20T18:48:11.137Z,25.94
2023-01-20T18:50:40.035Z,25.99
2023-01-20T18:53:07.771Z,25.94
2023-01-20T18:55:35.597Z,25.79
2023-01-20T18:58:03.821Z,25.51
2023-01-20T19:00:31.716Z,25.54
2023-01-20T19:03:00.884Z,25.60
2023-01-20T19:05:28.619Z,25.50
2023-01-20T19:07:56.406Z,25.37
2023-01-20T19:10:24.166Z,25.22
2023-01-20T19:12:51.913Z,25.03
2023-01-20T19:15:19.682Z,24.83
2023-01-20T19:17:47.440Z,24.62
2023-01-20T19:20:17.906Z,24.45
2023-01-20T19:22:45.909Z,24.29
2023-01-20T19:25:13.828Z,24.11
2023-01-20T19:27:41.605Z,23.98
2023-01-20T19:30:10.275Z,24.85
2023-01-20T19:32:38.109Z,28.98
2023-01-20T19:35:05.859Z,34.64
2023-01-20T19:37:33.659Z,38.98
2023-01-20T19:40:01.494Z,41.03
2023-01-20T19:42:29.311Z,41.83
2023-01-20T19:44:57.125Z,42.73
2023-01-20T19:47:25.036Z,43.07
2023-01-20T19:49:52.822Z,42.59
2023-01-20T19:52:20.594Z,41.65
2023-01-20T19:54:50.350Z,40.54
2023-01-20T19:57:19.654Z,39.40
2023-01-20T19:59:47.418Z,38.25
2023-01-20T20:02:15.195Z,37.15
2023-01-20T20:04:42.901Z,36.12
2023-01-20T20:07:10.704Z,35.12
2023-01-20T20:09:38.480Z,34.14
2023-01-20T20:12:07.896Z,33.20
2023-01-20T20:14:35.649Z,32.37
2023-01-20T20:17:03.427Z,31.55
2023-01-20T20:19:31.167Z,30.89
2023-01-20T20:21:58.935Z,30.19
2023-01-20T20:24:26.691Z,29.56
2023-01-20T20:26:54.496Z,28.99
2023-01-20T20:29:22.178Z,28.44
2023-01-20T20:31:50.518Z,27.94
2023-01-20T20:34:18.445Z,27.48
2023-01-20T20:36:46.203Z,27.04
2023-01-20T20:39:13.940Z,26.68
2023-01-20T20:41:42.209Z,26.31
2023-01-20T20:44:09.949Z,25.96
2023-01-20T20:46:37.783Z,25.68
2023-01-20T20:49:05.484Z,25.70
2023-01-20T20:51:33.293Z,25.69
2023-01-20T20:54:01.052Z,25.59
2023-01-20T20:56:31.883Z,25.44
2023-01-20T20:59:03.488Z,25.29
2023-01-20T21:01:33.078Z,25.10
2023-01-20T21:04:01.027Z,24.89
2023-01-20T21:06:28.750Z,24.66
2023-01-20T21:08:56.545Z,24.48
2023-01-20T21:11:24.987Z,24.32
2023-01-20T21:13:52.841Z,24.15
2023-01-20T21:16:23.124Z,23.98
2023-01-20T21:18:52.033Z,23.83
2023-01-20T21:21:20.393Z,23.72
2023-01-20T21:23:51.792Z,23.58
2023-01-20T21:26:19.631Z,23.42
2023-01-20T21:28:49.287Z,23.35
2023-01-20T21:31:17.231Z,23.29
2023-01-20T21:33:45.843Z,23.20
2023-01-20T21:36:13.672Z,23.11
2023-01-20T21:38:42.978Z,23.04
2023-01-20T21:41:11.036Z,22.97
2023-01-20T21:43:56.482Z,22.88
2023-01-20T21:46:24.395Z,22.81
2023-01-20T21:49:09.911Z,22.72
2023-01-20T21:51:55.046Z,22.63
2023-01-20T21:54:22.766Z,22.54
2023-01-20T21:56:50.577Z,22.47
2023-01-20T21:59:18.329Z,22.37
2023-01-20T22:01:46.075Z,22.25
2023-01-20T22:04:13.966Z,22.18
2023-01-20T22:06:41.744Z,22.02
2023-01-20T22:09:09.667Z,21.97
2023-01-20T22:11:37.431Z,21.89
2023-01-20T22:14:05.216Z,21.80
2023-01-20T22:16:33.211Z,21.72
2023-01-20T22:19:01.044Z,21.69
2023-01-20T22:21:29.589Z,21.65
2023-01-20T22:23:57.353Z,21.59
2023-01-20T22:26:25.054Z,21.58
2023-01-20T22:28:52.835Z,21.54
2023-01-20T22:31:23.469Z,21.47
2023-01-20T22:33:51.708Z,21.44
2023-01-20T22:36:19.453Z,21.41
2023-01-20T22:38:47.316Z,21.40
2023-01-20T22:41:15.264Z,21.36
2023-01-20T22:43:44.186Z,21.33
2023-01-20T22:46:12.006Z,21.34
2023-01-20T22:48:39.810Z,21.33
2023-01-20T22:51:07.506Z,21.31
2023-01-20T22:53:35.280Z,21.30
2023-01-20T22:56:03.380Z,21.28
2023-01-20T22:58:31.085Z,21.25
2023-01-20T23:00:58.937Z,21.23
2023-01-20T23:03:26.685Z,21.22
2023-01-20T23:05:54.375Z,21.20
2023-01-20T23:08:22.149Z,21.18
2023-01-20T23:10:49.864Z,21.17
2023-01-20T23:13:17.605Z,21.14
2023-01-20T23:15:45.331Z,21.14
2023-01-20T23:18:13.222Z,21.18
2023-01-20T23:20:40.981Z,21.14
2023-01-20T23:23:10.682Z,21.12
2023-01-20T23:25:38.428Z,21.11
2023-01-20T23:28:06.177Z,21.09
2023-01-20T23:30:33.925Z,21.10
2023-01-20T23:33:01.653Z,21.10
2023-01-20T23:35:29.415Z,21.06
2023-01-20T23:37:57.092Z,21.07
2023-01-20T23:40:26.101Z,21.05
2023-01-20T23:42:53.846Z,21.03
2023-01-20T23:45:21.551Z,20.99
2023-01-20T23:47:49.278Z,20.97
2023-01-20T23:50:17.428Z,20.91
2023-01-20T23:52:45.344Z,20.85
2023-01-20T23:55:13.091Z,20.80
2023-01-20T23:57:40.792Z,20.77
